Bodega Bay, California
Current Conditions -  °F | °C
As of 4:00 PM on Saturday 25 Oct 2014 (Local Time) from KSTS Reporting Station
Overcast Overcast  
Wind Chill: 66°   Ceiling: 3500
Heat Index: 66°   Visibility: 10mi
Dew Point: 55°   Wind: 12mph
Humidity: 68%   Direction: 220°SW
Pressure: 30.03"   Gusts: 20mph
Location:  38.32°N, 123.03°W
Report Text: KSTS 252300Z 22010G17KT 10SM SCT027 BKN035 OVC050 19/13 A3003 RMK AO2
Loading
Personal Weather Stations






























Interactive Weather Map
Tropical Storm Tracking
New forecast layout! Learn more

10-Day Weather Forecast

Advertisements
Track Severe Weather on mobile